createdAt,value
2018-10-17T00:00:19.780Z,33.00
2018-10-17T00:01:20.506Z,39.00
2018-10-17T00:02:21.229Z,39.00
2018-10-17T00:03:21.955Z,30.00
2018-10-17T00:04:22.679Z,33.00
2018-10-17T00:05:23.404Z,32.00
2018-10-17T00:06:24.136Z,30.00
2018-10-17T00:07:24.882Z,25.00
2018-10-17T00:08:25.603Z,25.00
2018-10-17T00:09:26.333Z,25.00
2018-10-17T00:10:27.057Z,23.00
2018-10-17T00:11:27.780Z,29.00
2018-10-17T00:12:28.505Z,31.00
2018-10-17T00:13:29.229Z,35.00
2018-10-17T00:14:29.953Z,34.00
2018-10-17T00:15:30.679Z,31.00
2018-10-17T00:16:31.405Z,32.00
2018-10-17T00:17:32.128Z,27.00
2018-10-17T00:18:32.853Z,31.00
2018-10-17T00:19:33.582Z,28.00
2018-10-17T00:20:34.304Z,30.00
2018-10-17T00:21:35.031Z,23.00
2018-10-17T00:22:35.760Z,24.00
2018-10-17T00:23:36.488Z,32.00
2018-10-17T00:24:37.205Z,30.00
2018-10-17T00:25:37.929Z,24.00
2018-10-17T00:26:38.681Z,24.00
2018-10-17T00:27:39.406Z,29.00
2018-10-17T00:28:40.157Z,25.00
2018-10-17T00:29:40.907Z,37.00
2018-10-17T00:30:41.633Z,34.00
2018-10-17T00:31:42.358Z,22.00
2018-10-17T00:32:43.082Z,42.00
2018-10-17T00:33:43.810Z,25.00
2018-10-17T00:34:44.532Z,31.00
2018-10-17T00:35:45.256Z,26.00
2018-10-17T00:36:45.980Z,26.00
2018-10-17T00:37:46.707Z,36.00
2018-10-17T00:38:47.456Z,27.00
2018-10-17T00:39:48.180Z,19.00
2018-10-17T00:40:48.907Z,32.00
2018-10-17T00:41:49.634Z,26.00
2018-10-17T00:42:50.357Z,27.00
2018-10-17T00:43:51.081Z,28.00
2018-10-17T00:44:51.808Z,28.00
2018-10-17T00:45:52.532Z,47.00
2018-10-17T00:46:53.331Z,29.00
2018-10-17T00:47:54.012Z,26.00
2018-10-17T00:48:54.735Z,33.00
2018-10-17T00:49:55.457Z,23.00
2018-10-17T00:50:56.185Z,27.00
2018-10-17T00:51:56.907Z,28.00
2018-10-17T00:52:57.671Z,25.00
2018-10-17T00:53:58.377Z,32.00
2018-10-17T00:54:59.151Z,22.00
2018-10-17T00:55:59.848Z,31.00
2018-10-17T00:57:00.597Z,33.00
2018-10-17T00:58:01.323Z,33.00
2018-10-17T00:59:02.110Z,20.00
2018-10-17T01:00:02.789Z,24.00
2018-10-17T01:01:03.628Z,23.00
2018-10-17T01:02:04.257Z,32.00
2018-10-17T01:03:04.984Z,26.00
2018-10-17T01:04:05.709Z,30.00
2018-10-17T01:05:06.473Z,29.00
2018-10-17T01:06:07.158Z,21.00
2018-10-17T01:07:07.986Z,28.00
2018-10-17T01:08:08.633Z,28.00
2018-10-17T01:09:09.357Z,26.00
2018-10-17T01:10:10.083Z,23.00
2018-10-17T01:11:10.919Z,32.00
2018-10-17T01:12:11.553Z,23.00
2018-10-17T01:13:12.330Z,31.00
2018-10-17T01:14:13.004Z,29.00
2018-10-17T01:15:13.728Z,23.00
2018-10-17T01:16:14.479Z,26.00
2018-10-17T01:17:15.254Z,29.00
2018-10-17T01:18:15.948Z,30.00
2018-10-17T01:19:16.671Z,22.00
2018-10-17T01:20:17.397Z,31.00
2018-10-17T01:21:18.121Z,39.00
2018-10-17T01:22:18.870Z,33.00
2018-10-17T01:23:19.598Z,27.00
2018-10-17T01:24:20.345Z,34.00
2018-10-17T01:25:21.069Z,27.00
2018-10-17T01:26:21.793Z,29.00
2018-10-17T01:27:22.544Z,35.00
2018-10-17T01:28:23.269Z,30.00
2018-10-17T01:29:23.994Z,27.00
2018-10-17T01:30:24.744Z,26.00
2018-10-17T01:31:25.474Z,28.00
2018-10-17T01:32:26.196Z,26.00
2018-10-17T01:33:26.919Z,28.00
2018-10-17T01:34:27.644Z,32.00
2018-10-17T01:35:28.369Z,28.00
2018-10-17T01:36:29.097Z,32.00
2018-10-17T01:37:29.842Z,26.00
2018-10-17T01:38:30.568Z,41.00
2018-10-17T01:39:31.290Z,32.00
2018-10-17T01:40:32.016Z,28.00
2018-10-17T01:41:32.747Z,39.00
2018-10-17T01:42:33.494Z,36.00
2018-10-17T01:43:34.218Z,44.00
2018-10-17T01:44:34.942Z,30.00
2018-10-17T01:45:35.692Z,32.00
2018-10-17T01:46:36.417Z,32.00
2018-10-17T01:47:37.142Z,29.00
2018-10-17T01:48:37.869Z,28.00
2018-10-17T01:49:38.593Z,26.00
2018-10-17T01:50:39.318Z,33.00
2018-10-17T01:51:40.041Z,36.00
2018-10-17T01:52:40.767Z,27.00
2018-10-17T01:53:41.492Z,36.00
2018-10-17T01:54:42.218Z,30.00
2018-10-17T01:55:42.965Z,26.00
2018-10-17T01:56:43.689Z,29.00
2018-10-17T01:57:44.414Z,30.00
2018-10-17T01:58:45.162Z,29.00
2018-10-17T01:59:45.891Z,33.00
2018-10-17T02:00:46.613Z,30.00
2018-10-17T02:01:47.337Z,47.00
2018-10-17T02:02:48.062Z,34.00
2018-10-17T02:03:48.788Z,28.00
2018-10-17T02:04:49.539Z,30.00
2018-10-17T02:05:50.263Z,32.00
2018-10-17T02:06:50.989Z,35.00
2018-10-17T02:07:51.715Z,28.00
2018-10-17T02:08:52.437Z,35.00
2018-10-17T02:09:53.162Z,47.00
2018-10-17T02:10:53.952Z,33.00
2018-10-17T02:11:54.631Z,35.00
2018-10-17T02:12:55.386Z,35.00
2018-10-17T02:13:56.083Z,35.00
2018-10-17T02:14:56.804Z,31.00
2018-10-17T02:15:57.551Z,35.00
2018-10-17T02:16:58.279Z,35.00
2018-10-17T02:17:59.000Z,35.00
2018-10-17T02:18:59.736Z,36.00
2018-10-17T02:20:00.698Z,39.00
2018-10-17T02:21:01.422Z,43.00
2018-10-17T02:22:02.149Z,32.00
2018-10-17T02:23:02.880Z,33.00
2018-10-17T02:24:03.595Z,26.00
2018-10-17T02:25:04.359Z,30.00
2018-10-17T02:26:05.043Z,31.00
2018-10-17T02:27:05.791Z,26.00
2018-10-17T02:28:06.516Z,31.00
2018-10-17T02:29:07.299Z,33.00
2018-10-17T02:30:08.073Z,49.00
2018-10-17T02:31:08.759Z,30.00
2018-10-17T02:32:09.414Z,31.00
2018-10-17T02:33:10.139Z,36.00
2018-10-17T02:34:10.886Z,38.00
2018-10-17T02:35:11.738Z,31.00
2018-10-17T02:36:12.340Z,29.00
2018-10-17T02:37:13.102Z,31.00
2018-10-17T02:38:13.785Z,33.00
2018-10-17T02:39:14.509Z,28.00
2018-10-17T02:40:15.234Z,29.00
2018-10-17T02:41:16.014Z,38.00
2018-10-17T02:42:16.683Z,32.00
2018-10-17T02:43:17.491Z,29.00
2018-10-17T02:44:18.133Z,30.00
2018-10-17T02:45:18.859Z,27.00
2018-10-17T02:46:19.583Z,37.00
2018-10-17T02:47:20.308Z,36.00
2018-10-17T02:48:21.033Z,36.00
2018-10-17T02:49:21.758Z,34.00
2018-10-17T02:50:22.484Z,38.00
2018-10-17T02:51:23.208Z,29.00
2018-10-17T02:52:23.935Z,33.00
2018-10-17T02:53:24.655Z,28.00
2018-10-17T02:54:25.389Z,41.00
2018-10-17T02:55:26.104Z,43.00
2018-10-17T02:56:26.852Z,41.00
2018-10-17T02:57:27.584Z,34.00
2018-10-17T02:58:28.331Z,35.00
2018-10-17T02:59:29.057Z,30.00
2018-10-17T03:00:29.779Z,46.00
2018-10-17T03:01:30.552Z,31.00
2018-10-17T03:02:31.230Z,43.00
2018-10-17T03:03:31.956Z,38.00
2018-10-17T03:04:32.701Z,32.00
2018-10-17T03:05:33.428Z,31.00
2018-10-17T03:06:34.152Z,37.00
2018-10-17T03:07:34.875Z,40.00
2018-10-17T03:08:35.601Z,44.00
2018-10-17T03:09:36.351Z,30.00
2018-10-17T03:10:37.078Z,40.00
2018-10-17T03:11:37.827Z,37.00
2018-10-17T03:12:38.551Z,31.00
2018-10-17T03:13:39.276Z,38.00
2018-10-17T03:14:40.001Z,41.00
2018-10-17T03:15:40.723Z,41.00
2018-10-17T03:16:41.447Z,37.00
2018-10-17T03:17:42.171Z,42.00
2018-10-17T03:18:42.895Z,35.00
2018-10-17T03:19:43.646Z,29.00
2018-10-17T03:20:44.396Z,37.00
2018-10-17T03:21:45.120Z,29.00
2018-10-17T03:22:45.844Z,35.00
2018-10-17T03:23:46.595Z,43.00
2018-10-17T03:24:47.323Z,37.00
2018-10-17T03:25:48.043Z,38.00
2018-10-17T03:26:48.769Z,38.00
2018-10-17T03:27:49.555Z,38.00
2018-10-17T03:28:50.239Z,34.00
2018-10-17T03:29:50.962Z,39.00
2018-10-17T03:30:51.736Z,38.00
2018-10-17T03:31:52.412Z,34.00
2018-10-17T03:32:53.136Z,35.00
2018-10-17T03:33:53.861Z,37.00
2018-10-17T03:34:54.594Z,32.00
2018-10-17T03:35:55.345Z,26.00
2018-10-17T03:36:56.127Z,34.00
2018-10-17T03:37:56.797Z,24.00
2018-10-17T03:38:57.521Z,32.00
2018-10-17T03:39:58.248Z,47.00
2018-10-17T03:40:59.008Z,39.00
2018-10-17T03:41:59.695Z,28.00
2018-10-17T03:43:00.459Z,36.00
2018-10-17T03:44:01.140Z,35.00
2018-10-17T03:45:01.867Z,35.00
2018-10-17T03:46:02.593Z,31.00
2018-10-17T03:47:03.362Z,37.00
2018-10-17T03:48:04.041Z,28.00
2018-10-17T03:49:04.817Z,43.00
2018-10-17T03:50:05.491Z,34.00
2018-10-17T03:51:06.214Z,31.00
2018-10-17T03:52:06.940Z,41.00
2018-10-17T03:53:07.780Z,36.00
2018-10-17T03:54:08.395Z,37.00
2018-10-17T03:55:09.160Z,32.00
2018-10-17T03:56:09.858Z,40.00
2018-10-17T03:57:10.580Z,34.00
2018-10-17T03:58:11.307Z,33.00
2018-10-17T03:59:12.081Z,37.00
2018-10-17T04:00:12.759Z,33.00
2018-10-17T04:01:13.616Z,39.00
2018-10-17T04:02:14.231Z,37.00
2018-10-17T04:03:15.016Z,29.00
2018-10-17T04:04:15.685Z,28.00
2018-10-17T04:05:16.517Z,38.00
2018-10-17T04:06:17.156Z,27.00
2018-10-17T04:07:17.973Z,35.00
2018-10-17T04:08:18.605Z,41.00
2018-10-17T04:09:19.330Z,28.00
2018-10-17T04:10:20.057Z,33.00
2018-10-17T04:11:20.786Z,37.00
2018-10-17T04:12:21.533Z,36.00
2018-10-17T04:13:22.281Z,30.00
2018-10-17T04:14:23.005Z,27.00
2018-10-17T04:15:23.730Z,38.00
2018-10-17T04:16:24.452Z,35.00
2018-10-17T04:17:25.177Z,33.00
2018-10-17T04:18:25.904Z,25.00
2018-10-17T04:19:26.628Z,35.00
2018-10-17T04:20:27.352Z,39.00
2018-10-17T04:21:28.077Z,36.00
2018-10-17T04:22:28.873Z,36.00
2018-10-17T04:23:29.523Z,33.00
2018-10-17T04:24:30.248Z,36.00
2018-10-17T04:25:30.976Z,35.00
2018-10-17T04:26:31.707Z,39.00
2018-10-17T04:27:32.445Z,40.00
2018-10-17T04:28:33.170Z,40.00
2018-10-17T04:29:33.898Z,30.00
2018-10-17T04:30:34.619Z,37.00
2018-10-17T04:31:35.344Z,38.00
2018-10-17T04:32:36.069Z,29.00
2018-10-17T04:33:36.820Z,33.00
2018-10-17T04:34:37.544Z,31.00
2018-10-17T04:35:38.268Z,40.00
2018-10-17T04:36:38.992Z,34.00
2018-10-17T04:37:39.717Z,43.00
2018-10-17T04:38:40.442Z,31.00
2018-10-17T04:39:41.167Z,35.00
2018-10-17T04:40:41.892Z,35.00
2018-10-17T04:41:42.619Z,34.00
2018-10-17T04:42:43.367Z,35.00
2018-10-17T04:43:44.094Z,40.00
2018-10-17T04:44:44.818Z,32.00
2018-10-17T04:45:45.545Z,37.00
2018-10-17T04:46:46.292Z,40.00
2018-10-17T04:47:47.121Z,34.00
2018-10-17T04:48:47.740Z,29.00
2018-10-17T04:49:48.465Z,39.00
2018-10-17T04:50:49.189Z,37.00
2018-10-17T04:51:49.913Z,40.00
2018-10-17T04:52:50.662Z,37.00
2018-10-17T04:53:51.387Z,37.00
2018-10-17T04:54:52.141Z,37.00
2018-10-17T04:55:52.884Z,31.00
2018-10-17T04:56:53.563Z,32.00
2018-10-17T04:57:54.287Z,43.00
2018-10-17T04:58:55.017Z,31.00
2018-10-17T04:59:55.760Z,40.00
2018-10-17T05:00:56.512Z,37.00
2018-10-17T05:01:57.209Z,31.00
2018-10-17T05:02:57.933Z,33.00
2018-10-17T05:03:58.658Z,34.00
2018-10-17T05:04:59.401Z,34.00
2018-10-17T05:06:00.108Z,39.00
2018-10-17T05:07:00.846Z,35.00
2018-10-17T05:08:01.562Z,35.00
2018-10-17T05:09:02.283Z,39.00
2018-10-17T05:10:03.005Z,37.00
2018-10-17T05:11:03.757Z,33.00
2018-10-17T05:12:04.458Z,34.00
2018-10-17T05:13:05.272Z,34.00
2018-10-17T05:14:05.931Z,25.00
2018-10-17T05:15:06.674Z,39.00
2018-10-17T05:16:07.406Z,32.00
2018-10-17T05:17:08.245Z,30.00
2018-10-17T05:18:08.871Z,32.00
2018-10-17T05:19:09.654Z,32.00
2018-10-17T05:20:10.324Z,36.00
2018-10-17T05:21:11.075Z,33.00
2018-10-17T05:22:11.795Z,29.00
2018-10-17T05:23:12.610Z,38.00
2018-10-17T05:24:13.245Z,31.00
2018-10-17T05:25:14.075Z,36.00
2018-10-17T05:26:14.695Z,32.00
2018-10-17T05:27:15.418Z,36.00
2018-10-17T05:28:16.143Z,29.00
2018-10-17T05:29:16.958Z,38.00
2018-10-17T05:30:17.593Z,30.00
2018-10-17T05:31:18.401Z,42.00
2018-10-17T05:32:19.066Z,31.00
2018-10-17T05:33:19.818Z,36.00
2018-10-17T05:34:20.552Z,36.00
2018-10-17T05:35:21.293Z,41.00
2018-10-17T05:36:22.016Z,29.00
2018-10-17T05:37:22.821Z,32.00
2018-10-17T05:38:23.474Z,31.00
2018-10-17T05:39:24.224Z,31.00
2018-10-17T05:40:24.948Z,40.00
2018-10-17T05:41:25.676Z,36.00
2018-10-17T05:42:26.400Z,38.00
2018-10-17T05:43:27.126Z,51.00
2018-10-17T05:44:27.873Z,38.00
2018-10-17T05:45:28.597Z,46.00
2018-10-17T05:46:29.324Z,37.00
2018-10-17T05:47:30.049Z,36.00
2018-10-17T05:48:30.778Z,25.00
2018-10-17T05:49:31.501Z,32.00
2018-10-17T05:50:32.225Z,30.00
2018-10-17T05:51:32.953Z,36.00
2018-10-17T05:52:33.680Z,27.00
2018-10-17T05:53:34.407Z,51.00
2018-10-17T05:54:35.134Z,34.00
2018-10-17T05:55:35.935Z,32.00
2018-10-17T05:56:36.590Z,40.00
2018-10-17T05:57:37.320Z,36.00
2018-10-17T05:58:38.046Z,33.00
2018-10-17T05:59:38.773Z,32.00
2018-10-17T06:00:39.501Z,39.00
2018-10-17T06:01:40.279Z,28.00
2018-10-17T06:02:40.978Z,39.00
2018-10-17T06:03:41.707Z,33.00
2018-10-17T06:04:42.437Z,38.00
2018-10-17T06:05:43.163Z,38.00
2018-10-17T06:06:43.890Z,37.00
2018-10-17T06:07:44.629Z,36.00
2018-10-17T06:08:45.343Z,33.00
2018-10-17T06:09:46.072Z,32.00
2018-10-17T06:10:46.801Z,30.00
2018-10-17T06:11:47.529Z,34.00
2018-10-17T06:12:48.255Z,29.00
2018-10-17T06:13:48.982Z,36.00
2018-10-17T06:14:49.711Z,35.00
2018-10-17T06:15:50.440Z,40.00
2018-10-17T06:16:51.212Z,35.00
2018-10-17T06:17:51.900Z,33.00
2018-10-17T06:18:52.633Z,27.00
2018-10-17T06:19:53.354Z,36.00
2018-10-17T06:20:54.081Z,27.00
2018-10-17T06:21:54.808Z,35.00
2018-10-17T06:22:55.571Z,35.00
2018-10-17T06:23:56.267Z,39.00
2018-10-17T06:24:57.039Z,37.00
2018-10-17T06:25:57.728Z,39.00
2018-10-17T06:26:58.458Z,40.00
2018-10-17T06:27:59.212Z,33.00
2018-10-17T06:29:00.013Z,36.00
2018-10-17T06:30:00.690Z,36.00
2018-10-17T06:31:01.504Z,33.00
2018-10-17T06:32:02.176Z,37.00
2018-10-17T06:33:02.925Z,37.00
2018-10-17T06:34:03.719Z,36.00
2018-10-17T06:35:04.443Z,35.00
2018-10-17T06:36:05.112Z,43.00
2018-10-17T06:37:05.874Z,34.00
2018-10-17T06:38:06.572Z,31.00
2018-10-17T06:39:07.303Z,37.00
2018-10-17T06:40:08.033Z,35.00
2018-10-17T06:41:08.770Z,40.00
2018-10-17T06:42:09.491Z,40.00
2018-10-17T06:43:10.306Z,37.00
2018-10-17T06:44:11.075Z,40.00
2018-10-17T06:45:11.678Z,38.00
2018-10-17T06:46:12.407Z,42.00
2018-10-17T06:47:13.212Z,28.00
2018-10-17T06:48:13.868Z,36.00
2018-10-17T06:49:14.629Z,24.00
2018-10-17T06:50:15.328Z,38.00
2018-10-17T06:51:16.070Z,33.00
2018-10-17T06:52:16.806Z,34.00
2018-10-17T06:53:17.542Z,31.00
2018-10-17T06:54:18.323Z,37.00
2018-10-17T06:55:19.062Z,31.00
2018-10-17T06:56:19.723Z,34.00
2018-10-17T06:57:20.455Z,43.00
2018-10-17T06:58:21.209Z,44.00
2018-10-17T06:59:21.941Z,33.00
2018-10-17T07:00:22.673Z,33.00
2018-10-17T07:01:23.404Z,25.00
2018-10-17T07:02:24.159Z,36.00
2018-10-17T07:03:24.885Z,29.00
2018-10-17T07:04:25.640Z,39.00
2018-10-17T07:05:26.374Z,49.00
2018-10-17T07:06:27.128Z,30.00
2018-10-17T07:07:27.863Z,38.00
2018-10-17T07:08:28.629Z,32.00
2018-10-17T07:09:29.364Z,34.00
2018-10-17T07:10:30.096Z,30.00
2018-10-17T07:11:30.827Z,43.00
2018-10-17T07:12:31.559Z,42.00
2018-10-17T07:13:32.292Z,33.00
2018-10-17T07:14:33.023Z,33.00
2018-10-17T07:15:33.866Z,40.00
2018-10-17T07:16:34.481Z,30.00
2018-10-17T07:17:35.214Z,35.00
2018-10-17T07:18:35.945Z,34.00
2018-10-17T07:19:36.700Z,33.00
2018-10-17T07:20:37.451Z,32.00
2018-10-17T07:21:38.180Z,34.00
2018-10-17T07:22:38.911Z,35.00
2018-10-17T07:23:39.644Z,33.00
2018-10-17T07:24:40.375Z,31.00
2018-10-17T07:25:41.108Z,35.00
2018-10-17T07:26:41.838Z,34.00
2018-10-17T07:27:42.574Z,32.00
2018-10-17T07:28:43.383Z,34.00
2018-10-17T07:29:44.160Z,36.00
2018-10-17T07:30:44.768Z,33.00
2018-10-17T07:31:45.501Z,30.00
2018-10-17T07:32:46.237Z,35.00
2018-10-17T07:33:46.966Z,35.00
2018-10-17T07:34:47.698Z,40.00
2018-10-17T07:35:48.499Z,30.00
2018-10-17T07:36:49.185Z,32.00
2018-10-17T07:37:49.920Z,30.00
2018-10-17T07:38:50.651Z,35.00
2018-10-17T07:39:51.383Z,27.00
2018-10-17T07:40:52.142Z,31.00
2018-10-17T07:41:52.918Z,33.00
2018-10-17T07:42:53.635Z,42.00
2018-10-17T07:43:54.364Z,22.00
2018-10-17T07:44:55.103Z,31.00
2018-10-17T07:45:55.856Z,35.00
2018-10-17T07:46:56.592Z,27.00
2018-10-17T07:47:57.341Z,30.00
2018-10-17T07:48:58.055Z,33.00
2018-10-17T07:49:58.789Z,33.00
2018-10-17T07:50:59.521Z,40.00
2018-10-17T07:52:00.256Z,28.00
2018-10-17T07:53:01.025Z,26.00
2018-10-17T07:54:01.786Z,32.00
2018-10-17T07:55:02.456Z,24.00
2018-10-17T07:56:03.191Z,29.00
2018-10-17T07:57:03.923Z,24.00
2018-10-17T07:58:04.681Z,29.00
2018-10-17T07:59:05.418Z,30.00
2018-10-17T08:00:06.215Z,34.00
2018-10-17T08:01:06.906Z,25.00
2018-10-17T08:02:07.642Z,33.00
2018-10-17T08:03:08.376Z,29.00
2018-10-17T08:04:09.111Z,27.00
2018-10-17T08:05:09.846Z,26.00
2018-10-17T08:06:10.648Z,22.00
2018-10-17T08:07:11.315Z,25.00
2018-10-17T08:08:12.051Z,27.00
2018-10-17T08:09:12.787Z,25.00
2018-10-17T08:10:13.519Z,26.00
2018-10-17T08:11:14.257Z,24.00
2018-10-17T08:12:15.110Z,26.00
2018-10-17T08:13:15.760Z,26.00
2018-10-17T08:14:16.556Z,25.00
2018-10-17T08:15:17.238Z,23.00
2018-10-17T08:16:17.974Z,26.00
2018-10-17T08:17:18.709Z,25.00
2018-10-17T08:18:19.510Z,19.00
2018-10-17T08:19:20.179Z,22.00
2018-10-17T08:20:20.912Z,22.00
2018-10-17T08:21:21.710Z,17.00
2018-10-17T08:22:22.405Z,20.00
2018-10-17T08:23:23.141Z,15.00
2018-10-17T08:24:23.877Z,20.00
2018-10-17T08:25:24.616Z,21.00
2018-10-17T08:26:25.347Z,25.00
2018-10-17T08:27:26.136Z,17.00
2018-10-17T08:28:26.818Z,22.00
2018-10-17T08:29:27.549Z,21.00
2018-10-17T08:30:28.284Z,18.00
2018-10-17T08:31:29.021Z,20.00
2018-10-17T08:32:29.757Z,21.00
2018-10-17T08:33:30.495Z,16.00
2018-10-17T08:34:31.229Z,18.00
2018-10-17T08:35:32.266Z,17.00
2018-10-17T08:36:32.863Z,19.00
2018-10-17T08:37:33.822Z,18.00
2018-10-17T08:38:34.173Z,24.00
2018-10-17T08:39:34.910Z,27.00
2018-10-17T08:40:35.646Z,23.00
2018-10-17T08:41:36.382Z,23.00
2018-10-17T08:42:37.119Z,20.00
2018-10-17T08:43:37.859Z,18.00
2018-10-17T08:44:38.599Z,24.00
2018-10-17T08:45:39.337Z,27.00
2018-10-17T08:46:40.077Z,20.00
2018-10-17T08:47:40.816Z,18.00
2018-10-17T08:48:41.561Z,21.00
2018-10-17T08:49:42.307Z,23.00
2018-10-17T08:50:43.126Z,20.00
2018-10-17T08:51:43.793Z,22.00
2018-10-17T08:52:44.537Z,19.00
2018-10-17T08:53:45.283Z,19.00
2018-10-17T08:54:46.029Z,22.00
2018-10-17T08:55:46.775Z,19.00
2018-10-17T08:56:47.517Z,18.00
2018-10-17T08:57:48.282Z,21.00
2018-10-17T08:58:49.004Z,19.00
2018-10-17T08:59:49.764Z,25.00
2018-10-17T09:00:50.508Z,23.00
2018-10-17T09:01:51.258Z,22.00
2018-10-17T09:02:51.995Z,21.00
2018-10-17T09:03:52.740Z,17.00
2018-10-17T09:04:53.487Z,25.00
2018-10-17T09:05:54.257Z,23.00
2018-10-17T09:06:55.005Z,23.00
2018-10-17T09:07:55.804Z,21.00
2018-10-17T09:08:56.519Z,22.00
2018-10-17T09:09:57.263Z,18.00
2018-10-17T09:10:58.006Z,15.00
2018-10-17T09:11:58.777Z,14.00
2018-10-17T09:12:59.492Z,15.00
2018-10-17T09:14:00.250Z,21.00
2018-10-17T09:15:00.979Z,19.00
2018-10-17T09:16:01.751Z,17.00
2018-10-17T09:17:02.487Z,18.00
2018-10-17T09:18:03.245Z,13.00
2018-10-17T09:19:03.974Z,15.00
2018-10-17T09:20:05.100Z,17.00
2018-10-17T09:21:05.870Z,14.00
2018-10-17T09:22:06.643Z,24.00
2018-10-17T09:23:06.994Z,16.00
2018-10-17T09:24:07.744Z,17.00
2018-10-17T09:25:08.540Z,16.00
2018-10-17T09:26:09.228Z,15.00
2018-10-17T09:27:09.996Z,11.00
2018-10-17T09:28:10.871Z,14.00
2018-10-17T09:29:11.483Z,17.00
2018-10-17T09:30:12.245Z,12.00
2018-10-17T09:31:12.969Z,17.00
2018-10-17T09:32:13.712Z,10.00
2018-10-17T09:33:14.457Z,22.00
2018-10-17T09:34:15.390Z,16.00
2018-10-17T09:35:16.047Z,13.00
2018-10-17T09:36:16.779Z,16.00
2018-10-17T09:37:17.476Z,17.00
2018-10-17T09:38:18.247Z,16.00
2018-10-17T09:39:19.018Z,17.00
2018-10-17T09:40:19.859Z,13.00
2018-10-17T09:41:20.534Z,15.00
2018-10-17T09:42:21.359Z,13.00
2018-10-17T09:43:22.093Z,11.00
2018-10-17T09:44:22.769Z,13.00
2018-10-17T09:45:23.514Z,13.00
2018-10-17T09:46:24.260Z,13.00
2018-10-17T09:47:25.007Z,16.00
2018-10-17T09:48:25.754Z,13.00
2018-10-17T09:49:26.500Z,13.00
2018-10-17T09:50:27.245Z,13.00
2018-10-17T09:51:27.996Z,13.00
2018-10-17T09:52:28.737Z,15.00
2018-10-17T09:53:29.623Z,12.00
2018-10-17T09:54:30.282Z,11.00
2018-10-17T09:55:30.974Z,17.00
2018-10-17T09:56:31.743Z,16.00
2018-10-17T09:57:32.540Z,16.00
2018-10-17T09:58:33.283Z,14.00
2018-10-17T09:59:34.030Z,16.00
2018-10-17T10:00:34.778Z,14.00
2018-10-17T10:01:35.528Z,16.00
2018-10-17T10:02:36.295Z,22.00
2018-10-17T10:03:37.040Z,22.00
2018-10-17T10:04:37.786Z,24.00
2018-10-17T10:05:38.533Z,28.00
2018-10-17T10:06:39.283Z,15.00
2018-10-17T10:07:40.074Z,15.00
2018-10-17T10:08:40.818Z,17.00
2018-10-17T10:09:41.589Z,16.00
2018-10-17T10:10:42.334Z,14.00
2018-10-17T10:11:43.079Z,15.00
2018-10-17T10:12:43.847Z,14.00
2018-10-17T10:13:44.593Z,16.00
2018-10-17T10:14:45.339Z,12.00
2018-10-17T10:15:46.108Z,13.00
2018-10-17T10:16:46.856Z,17.00
2018-10-17T10:17:47.626Z,15.00
2018-10-17T10:18:48.370Z,16.00
2018-10-17T10:19:49.141Z,18.00
2018-10-17T10:20:49.887Z,15.00
2018-10-17T10:21:50.631Z,37.00
2018-10-17T10:22:51.436Z,40.00
2018-10-17T10:23:52.124Z,62.00
2018-10-17T10:24:52.915Z,47.00
2018-10-17T10:25:53.640Z,25.00
2018-10-17T10:26:54.384Z,19.00
2018-10-17T10:27:55.201Z,18.00
2018-10-17T10:28:55.877Z,10.00
2018-10-17T10:29:56.797Z,19.00
2018-10-17T10:30:57.390Z,13.00
2018-10-17T10:31:58.136Z,15.00
2018-10-17T10:32:58.888Z,15.00
2018-10-17T10:33:59.728Z,16.00
2018-10-17T10:35:00.404Z,13.00
2018-10-17T10:36:01.159Z,12.00
2018-10-17T10:37:01.918Z,15.00
2018-10-17T10:38:02.689Z,16.00
2018-10-17T10:39:03.437Z,11.00
2018-10-17T10:40:04.191Z,12.00
2018-10-17T10:41:04.929Z,19.00
2018-10-17T10:42:05.725Z,15.00
2018-10-17T10:43:06.423Z,15.00
2018-10-17T10:44:07.252Z,15.00
2018-10-17T10:45:08.000Z,16.00
2018-10-17T10:46:08.664Z,16.00
2018-10-17T10:47:09.410Z,17.00
2018-10-17T10:48:10.214Z,17.00
2018-10-17T10:49:10.971Z,16.00
2018-10-17T10:50:11.680Z,21.00
2018-10-17T10:51:12.476Z,13.00
2018-10-17T10:52:13.143Z,16.00
2018-10-17T10:53:13.889Z,14.00
2018-10-17T10:54:14.710Z,11.00
2018-10-17T10:55:15.380Z,14.00
2018-10-17T10:56:16.217Z,11.00
2018-10-17T10:57:16.963Z,17.00
2018-10-17T10:58:17.759Z,24.00
2018-10-17T10:59:18.475Z,16.00
2018-10-17T11:00:19.278Z,13.00
2018-10-17T11:01:19.893Z,18.00
2018-10-17T11:02:20.638Z,13.00
2018-10-17T11:03:21.388Z,18.00
2018-10-17T11:04:22.126Z,14.00
2018-10-17T11:05:23.076Z,16.00
2018-10-17T11:06:23.635Z,15.00
2018-10-17T11:07:24.382Z,15.00
2018-10-17T11:08:25.121Z,25.00
2018-10-17T11:09:25.863Z,14.00
2018-10-17T11:10:26.606Z,18.00
2018-10-17T11:11:27.350Z,18.00
2018-10-17T11:12:28.093Z,21.00
2018-10-17T11:13:28.837Z,24.00
2018-10-17T11:14:29.692Z,22.00
2018-10-17T11:15:30.325Z,13.00
2018-10-17T11:16:31.071Z,14.00
2018-10-17T11:17:31.816Z,13.00
2018-10-17T11:18:32.561Z,20.00
2018-10-17T11:19:33.337Z,14.00
2018-10-17T11:20:34.077Z,17.00
2018-10-17T11:21:34.821Z,23.00
2018-10-17T11:22:35.565Z,19.00
2018-10-17T11:23:36.309Z,16.00
2018-10-17T11:24:37.056Z,21.00
2018-10-17T11:25:37.799Z,18.00
2018-10-17T11:26:38.542Z,23.00
2018-10-17T11:27:39.286Z,19.00
2018-10-17T11:28:40.030Z,15.00
2018-10-17T11:29:40.776Z,19.00
2018-10-17T11:30:41.517Z,16.00
2018-10-17T11:31:42.324Z,27.00
2018-10-17T11:32:43.002Z,16.00
2018-10-17T11:33:43.748Z,15.00
2018-10-17T11:34:44.487Z,29.00
2018-10-17T11:35:45.231Z,17.00
2018-10-17T11:36:45.973Z,24.00
2018-10-17T11:37:46.763Z,18.00
2018-10-17T11:38:47.454Z,15.00
2018-10-17T11:39:48.200Z,16.00
2018-10-17T11:40:48.947Z,19.00
2018-10-17T11:41:49.707Z,19.00
2018-10-17T11:42:50.450Z,16.00
2018-10-17T11:43:51.188Z,19.00
2018-10-17T11:44:51.938Z,18.00
2018-10-17T11:45:52.669Z,17.00
2018-10-17T11:46:53.425Z,18.00
2018-10-17T11:47:54.216Z,14.00
2018-10-17T11:48:54.890Z,19.00
2018-10-17T11:49:55.628Z,16.00
2018-10-17T11:50:56.393Z,15.00
2018-10-17T11:51:57.108Z,18.00
2018-10-17T11:52:57.889Z,19.00
2018-10-17T11:53:58.612Z,27.00
2018-10-17T11:54:59.354Z,46.00
2018-10-17T11:56:00.101Z,104.00
2018-10-17T11:57:00.919Z,36.00
2018-10-17T11:58:01.600Z,38.00
2018-10-17T11:59:02.409Z,28.00
2018-10-17T12:00:03.076Z,19.00
2018-10-17T12:01:03.814Z,19.00
2018-10-17T12:02:04.552Z,21.00
2018-10-17T12:03:05.368Z,29.00
2018-10-17T12:04:06.345Z,12.00
2018-10-17T12:05:06.989Z,19.00
2018-10-17T12:06:07.634Z,36.00
2018-10-17T12:07:08.271Z,19.00
2018-10-17T12:08:09.012Z,16.00
2018-10-17T12:09:09.815Z,16.00
2018-10-17T12:10:10.490Z,19.00
2018-10-17T12:11:11.296Z,16.00
2018-10-17T12:12:11.986Z,19.00
2018-10-17T12:13:12.704Z,16.00
2018-10-17T12:14:13.442Z,17.00
2018-10-17T12:15:14.235Z,22.00
2018-10-17T12:16:14.915Z,16.00
2018-10-17T12:17:15.654Z,12.00
2018-10-17T12:18:16.415Z,17.00
2018-10-17T12:19:17.185Z,23.00
2018-10-17T12:20:17.870Z,17.00
2018-10-17T12:21:18.666Z,27.00
2018-10-17T12:22:19.346Z,13.00
2018-10-17T12:23:20.084Z,16.00
2018-10-17T12:24:20.825Z,17.00
2018-10-17T12:25:21.558Z,21.00
2018-10-17T12:26:22.298Z,19.00
2018-10-17T12:27:23.062Z,25.00
2018-10-17T12:28:23.864Z,18.00
2018-10-17T12:29:24.561Z,18.00
2018-10-17T12:30:25.298Z,14.00
2018-10-17T12:31:26.035Z,18.00
2018-10-17T12:32:26.775Z,21.00
2018-10-17T12:33:27.539Z,14.00
2018-10-17T12:34:28.276Z,13.00
2018-10-17T12:35:29.016Z,21.00
2018-10-17T12:36:29.758Z,21.00
2018-10-17T12:37:30.496Z,22.00
2018-10-17T12:38:31.235Z,24.00
2018-10-17T12:39:32.087Z,24.00
2018-10-17T12:40:32.882Z,17.00
2018-10-17T12:41:33.527Z,18.00
2018-10-17T12:42:34.215Z,24.00
2018-10-17T12:43:34.967Z,15.00
2018-10-17T12:44:35.692Z,15.00
2018-10-17T12:45:36.469Z,17.00
2018-10-17T12:46:37.194Z,16.00
2018-10-17T12:47:37.938Z,15.00
2018-10-17T12:48:38.675Z,21.00
2018-10-17T12:49:39.462Z,18.00
2018-10-17T12:50:40.157Z,15.00
2018-10-17T12:51:40.920Z,17.00
2018-10-17T12:52:41.717Z,21.00
2018-10-17T12:53:42.421Z,16.00
2018-10-17T12:54:43.183Z,20.00
2018-10-17T12:55:43.923Z,21.00
2018-10-17T12:56:44.657Z,23.00
2018-10-17T12:57:45.397Z,18.00
2018-10-17T12:58:46.134Z,28.00
2018-10-17T12:59:46.876Z,18.00
2018-10-17T13:00:47.617Z,22.00
2018-10-17T13:01:48.354Z,22.00